sensor_id;sensor_type;location;lat;lon;timestamp;P1;durP1;ratioP1;P2;durP2;ratioP2
62037;SDS011;47991;42.974;12.082;2023-03-08T10:55:14;10.10;;;2.00;;
62037;SDS011;47991;42.974;12.082;2023-03-08T10:57:51;7.30;;;2.50;;
62037;SDS011;47991;42.974;12.082;2023-03-08T11:00:37;7.90;;;2.20;;
62037;SDS011;47991;42.974;12.082;2023-03-08T11:03:17;7.30;;;2.30;;
62037;SDS011;47991;42.974;12.082;2023-03-08T11:05:55;11.80;;;2.80;;
62037;SDS011;47991;42.974;12.082;2023-03-08T11:08:35;7.50;;;2.40;;
62037;SDS011;47991;42.974;12.082;2023-03-08T11:11:07;9.70;;;2.30;;
62037;SDS011;47991;42.974;12.082;2023-03-08T11:19:20;7.70;;;2.20;;
62037;SDS011;47991;42.974;12.082;2023-03-08T11:29:00;6.20;;;2.10;;
62037;SDS011;47991;42.974;12.082;2023-03-08T11:41:06;7.40;;;2.30;;
62037;SDS011;47991;42.974;12.082;2023-03-08T11:52:31;7.00;;;2.40;;
62037;SDS011;47991;42.974;12.082;2023-03-08T11:55:45;11.40;;;3.30;;
62037;SDS011;47991;42.974;12.082;2023-03-08T11:58:44;9.10;;;2.80;;
62037;SDS011;47991;42.974;12.082;2023-03-08T12:01:22;8.00;;;2.80;;
62037;SDS011;47991;42.974;12.082;2023-03-08T12:03:54;9.10;;;3.20;;
62037;SDS011;47991;42.974;12.082;2023-03-08T12:06:31;8.00;;;3.00;;
62037;SDS011;47991;42.974;12.082;2023-03-08T12:12:11;8.90;;;2.70;;
62037;SDS011;47991;42.974;12.082;2023-03-08T12:15:00;9.40;;;3.10;;
62037;SDS011;47991;42.974;12.082;2023-03-08T12:17:40;6.80;;;2.10;;
62037;SDS011;47991;42.974;12.082;2023-03-08T12:20:21;7.50;;;2.60;;
62037;SDS011;47991;42.974;12.082;2023-03-08T12:22:56;6.90;;;2.80;;
62037;SDS011;47991;42.974;12.082;2023-03-08T12:25:39;9.50;;;2.90;;
62037;SDS011;47991;42.974;12.082;2023-03-08T12:28:19;10.50;;;2.80;;
62037;SDS011;47991;42.974;12.082;2023-03-08T12:34:22;9.00;;;2.20;;
62037;SDS011;47991;42.974;12.082;2023-03-08T12:36:50;9.00;;;2.90;;
62037;SDS011;47991;42.974;12.082;2023-03-08T12:42:01;11.30;;;2.50;;
62037;SDS011;47991;42.974;12.082;2023-03-08T12:44:29;8.90;;;3.00;;
62037;SDS011;47991;42.974;12.082;2023-03-08T12:47:16;7.70;;;2.80;;
62037;SDS011;47991;42.974;12.082;2023-03-08T12:49:49;8.20;;;2.70;;
62037;SDS011;47991;42.974;12.082;2023-03-08T12:52:31;9.70;;;2.40;;
62037;SDS011;47991;42.974;12.082;2023-03-08T12:57:33;9.10;;;2.90;;
62037;SDS011;47991;42.974;12.082;2023-03-08T13:00:24;8.60;;;2.20;;
62037;SDS011;47991;42.974;12.082;2023-03-08T13:05:43;9.90;;;2.80;;
62037;SDS011;47991;42.974;12.082;2023-03-08T13:10:40;8.10;;;2.20;;
62037;SDS011;47991;42.974;12.082;2023-03-08T13:13:22;8.50;;;2.20;;
62037;SDS011;47991;42.974;12.082;2023-03-08T13:18:17;10.00;;;2.50;;
62037;SDS011;47991;42.974;12.082;2023-03-08T13:21:47;11.40;;;2.50;;
62037;SDS011;47991;42.974;12.082;2023-03-08T13:26:26;7.80;;;2.60;;
62037;SDS011;47991;42.974;12.082;2023-03-08T13:29:07;6.20;;;2.20;;
62037;SDS011;47991;42.974;12.082;2023-03-08T13:31:39;9.20;;;2.50;;
62037;SDS011;47991;42.974;12.082;2023-03-08T13:34:29;9.80;;;2.50;;
62037;SDS011;47991;42.974;12.082;2023-03-08T13:36:56;7.50;;;2.20;;
62037;SDS011;47991;42.974;12.082;2023-03-08T13:39:24;9.80;;;2.40;;
62037;SDS011;47991;42.974;12.082;2023-03-08T13:42:03;8.50;;;2.20;;
62037;SDS011;47991;42.974;12.082;2023-03-08T13:44:38;6.00;;;2.00;;
62037;SDS011;47991;42.974;12.082;2023-03-08T13:47:26;7.60;;;2.00;;
62037;SDS011;47991;42.974;12.082;2023-03-08T13:49:59;7.30;;;2.20;;
62037;SDS011;47991;42.974;12.082;2023-03-08T13:52:29;5.60;;;1.90;;
62037;SDS011;47991;42.974;12.082;2023-03-08T13:57:29;6.80;;;2.40;;
62037;SDS011;47991;42.974;12.082;2023-03-08T14:03:04;6.50;;;2.30;;
62037;SDS011;47991;42.974;12.082;2023-03-08T14:05:39;11.20;;;2.60;;
62037;SDS011;47991;42.974;12.082;2023-03-08T14:08:22;10.00;;;3.00;;
62037;SDS011;47991;42.974;12.082;2023-03-08T14:10:55;7.40;;;2.40;;
62037;SDS011;47991;42.974;12.082;2023-03-08T14:13:29;9.80;;;2.00;;
62037;SDS011;47991;42.974;12.082;2023-03-08T14:15:58;5.10;;;1.70;;
62037;SDS011;47991;42.974;12.082;2023-03-08T14:18:29;7.00;;;2.30;;
62037;SDS011;47991;42.974;12.082;2023-03-08T14:21:17;7.20;;;2.20;;
62037;SDS011;47991;42.974;12.082;2023-03-08T14:23:53;9.90;;;2.40;;
62037;SDS011;47991;42.974;12.082;2023-03-08T14:37:05;6.30;;;2.10;;
62037;SDS011;47991;42.974;12.082;2023-03-08T14:39:50;6.90;;;2.20;;
62037;SDS011;47991;42.974;12.082;2023-03-08T14:42:26;7.40;;;2.20;;
62037;SDS011;47991;42.974;12.082;2023-03-08T14:45:31;10.90;;;2.10;;
62037;SDS011;47991;42.974;12.082;2023-03-08T14:49:04;10.80;;;2.40;;
62037;SDS011;47991;42.974;12.082;2023-03-08T14:53:57;11.20;;;3.20;;
62037;SDS011;47991;42.974;12.082;2023-03-08T14:56:27;8.20;;;2.30;;
62037;SDS011;47991;42.974;12.082;2023-03-08T14:58:57;6.60;;;2.30;;
62037;SDS011;47991;42.974;12.082;2023-03-08T15:01:28;8.30;;;2.50;;
62037;SDS011;47991;42.974;12.082;2023-03-08T15:03:57;8.10;;;2.30;;
62037;SDS011;47991;42.974;12.082;2023-03-08T15:06:43;7.80;;;3.00;;
62037;SDS011;47991;42.974;12.082;2023-03-08T15:09:17;14.60;;;3.10;;
62037;SDS011;47991;42.974;12.082;2023-03-08T15:11:47;7.80;;;2.90;;
62037;SDS011;47991;42.974;12.082;2023-03-08T15:14:20;11.60;;;2.50;;
62037;SDS011;47991;42.974;12.082;2023-03-08T15:16:51;7.60;;;2.70;;
62037;SDS011;47991;42.974;12.082;2023-03-08T15:19:20;9.00;;;2.20;;
62037;SDS011;47991;42.974;12.082;2023-03-08T15:21:54;10.30;;;3.60;;
62037;SDS011;47991;42.974;12.082;2023-03-08T15:24:22;5.00;;;1.90;;
62037;SDS011;47991;42.974;12.082;2023-03-08T15:26:49;7.90;;;2.00;;
62037;SDS011;47991;42.974;12.082;2023-03-08T15:31:55;8.20;;;2.30;;
62037;SDS011;47991;42.974;12.082;2023-03-08T15:34:27;9.30;;;2.10;;
62037;SDS011;47991;42.974;12.082;2023-03-08T15:37:12;5.60;;;1.90;;
62037;SDS011;47991;42.974;12.082;2023-03-08T15:39:50;10.00;;;2.30;;
62037;SDS011;47991;42.974;12.082;2023-03-08T15:42:20;12.30;;;2.40;;
62037;SDS011;47991;42.974;12.082;2023-03-08T15:47:21;9.40;;;2.50;;
62037;SDS011;47991;42.974;12.082;2023-03-08T15:49:51;7.40;;;3.00;;
62037;SDS011;47991;42.974;12.082;2023-03-08T15:52:18;11.00;;;3.10;;
62037;SDS011;47991;42.974;12.082;2023-03-08T15:54:47;7.10;;;2.60;;
62037;SDS011;47991;42.974;12.082;2023-03-08T15:57:30;11.60;;;2.50;;
62037;SDS011;47991;42.974;12.082;2023-03-08T15:59:57;5.30;;;2.00;;
62037;SDS011;47991;42.974;12.082;2023-03-08T16:02:23;9.50;;;2.40;;
62037;SDS011;47991;42.974;12.082;2023-03-08T16:04:50;8.00;;;2.40;;
62037;SDS011;47991;42.974;12.082;2023-03-08T16:07:21;8.30;;;2.90;;
62037;SDS011;47991;42.974;12.082;2023-03-08T16:09:48;4.90;;;2.10;;
62037;SDS011;47991;42.974;12.082;2023-03-08T16:12:15;9.60;;;2.50;;
62037;SDS011;47991;42.974;12.082;2023-03-08T16:14:46;10.30;;;2.80;;
62037;SDS011;47991;42.974;12.082;2023-03-08T16:17:16;8.80;;;2.80;;
62037;SDS011;47991;42.974;12.082;2023-03-08T16:19:46;8.40;;;2.60;;
62037;SDS011;47991;42.974;12.082;2023-03-08T16:22:13;8.20;;;2.80;;
62037;SDS011;47991;42.974;12.082;2023-03-08T16:24:39;9.60;;;2.70;;
62037;SDS011;47991;42.974;12.082;2023-03-08T16:27:06;8.90;;;2.70;;
62037;SDS011;47991;42.974;12.082;2023-03-08T16:29:39;7.40;;;2.40;;
62037;SDS011;47991;42.974;12.082;2023-03-08T16:32:12;9.70;;;2.70;;
62037;SDS011;47991;42.974;12.082;2023-03-08T16:34:40;8.60;;;2.90;;
62037;SDS011;47991;42.974;12.082;2023-03-08T16:37:08;6.60;;;2.50;;
62037;SDS011;47991;42.974;12.082;2023-03-08T16:39:41;8.00;;;2.60;;
62037;SDS011;47991;42.974;12.082;2023-03-08T16:42:33;8.60;;;2.50;;
62037;SDS011;47991;42.974;12.082;2023-03-08T16:45:04;8.10;;;3.20;;
62037;SDS011;47991;42.974;12.082;2023-03-08T16:47:34;11.20;;;3.10;;
62037;SDS011;47991;42.974;12.082;2023-03-08T16:50:04;10.00;;;3.00;;
62037;SDS011;47991;42.974;12.082;2023-03-08T16:52:31;9.20;;;3.20;;
62037;SDS011;47991;42.974;12.082;2023-03-08T16:55:01;8.10;;;3.10;;
62037;SDS011;47991;42.974;12.082;2023-03-08T16:57:39;11.40;;;2.80;;
62037;SDS011;47991;42.974;12.082;2023-03-08T17:00:06;10.20;;;3.60;;
62037;SDS011;47991;42.974;12.082;2023-03-08T17:02:38;10.30;;;3.10;;
62037;SDS011;47991;42.974;12.082;2023-03-08T17:05:05;10.00;;;3.00;;
62037;SDS011;47991;42.974;12.082;2023-03-08T17:07:38;11.80;;;3.50;;
62037;SDS011;47991;42.974;12.082;2023-03-08T17:10:11;6.20;;;2.50;;
62037;SDS011;47991;42.974;12.082;2023-03-08T17:12:39;12.00;;;3.20;;
62037;SDS011;47991;42.974;12.082;2023-03-08T17:15:07;10.20;;;3.50;;
62037;SDS011;47991;42.974;12.082;2023-03-08T17:17:39;11.20;;;2.60;;
62037;SDS011;47991;42.974;12.082;2023-03-08T17:20:12;13.30;;;3.00;;
62037;SDS011;47991;42.974;12.082;2023-03-08T17:22:53;10.60;;;3.30;;
62037;SDS011;47991;42.974;12.082;2023-03-08T17:25:32;9.10;;;2.90;;
62037;SDS011;47991;42.974;12.082;2023-03-08T17:30:32;8.40;;;2.60;;
62037;SDS011;47991;42.974;12.082;2023-03-08T17:33:02;10.90;;;3.70;;
62037;SDS011;47991;42.974;12.082;2023-03-08T17:35:32;11.00;;;2.80;;
62037;SDS011;47991;42.974;12.082;2023-03-08T17:38:06;10.10;;;2.90;;
62037;SDS011;47991;42.974;12.082;2023-03-08T17:40:37;10.50;;;3.00;;
62037;SDS011;47991;42.974;12.082;2023-03-08T17:43:07;9.80;;;2.60;;
62037;SDS011;47991;42.974;12.082;2023-03-08T17:45:34;7.00;;;2.70;;
62037;SDS011;47991;42.974;12.082;2023-03-08T17:48:01;11.70;;;3.40;;
62037;SDS011;47991;42.974;12.082;2023-03-08T17:50:28;12.20;;;3.10;;
62037;SDS011;47991;42.974;12.082;2023-03-08T17:52:59;12.00;;;3.20;;
62037;SDS011;47991;42.974;12.082;2023-03-08T17:55:51;12.10;;;3.10;;
62037;SDS011;47991;42.974;12.082;2023-03-08T17:58:54;9.40;;;2.80;;
62037;SDS011;47991;42.974;12.082;2023-03-08T18:01:46;9.80;;;3.00;;
62037;SDS011;47991;42.974;12.082;2023-03-08T18:04:16;9.90;;;3.00;;
62037;SDS011;47991;42.974;12.082;2023-03-08T18:07:02;9.70;;;3.10;;
62037;SDS011;47991;42.974;12.082;2023-03-08T18:09:40;8.60;;;2.90;;
62037;SDS011;47991;42.974;12.082;2023-03-08T18:12:14;11.30;;;2.90;;
62037;SDS011;47991;42.974;12.082;2023-03-08T18:14:43;12.40;;;3.10;;
62037;SDS011;47991;42.974;12.082;2023-03-08T18:17:26;12.10;;;3.20;;
62037;SDS011;47991;42.974;12.082;2023-03-08T18:19:56;7.60;;;2.60;;
62037;SDS011;47991;42.974;12.082;2023-03-08T18:22:23;8.40;;;2.80;;
62037;SDS011;47991;42.974;12.082;2023-03-08T18:24:53;11.80;;;3.30;;
62037;SDS011;47991;42.974;12.082;2023-03-08T18:27:28;8.60;;;2.60;;
62037;SDS011;47991;42.974;12.082;2023-03-08T18:29:56;12.50;;;3.40;;
62037;SDS011;47991;42.974;12.082;2023-03-08T18:32:29;8.60;;;2.80;;
62037;SDS011;47991;42.974;12.082;2023-03-08T18:35:05;9.30;;;2.70;;
62037;SDS011;47991;42.974;12.082;2023-03-08T18:37:41;10.50;;;3.20;;
62037;SDS011;47991;42.974;12.082;2023-03-08T18:40:08;15.20;;;3.70;;
62037;SDS011;47991;42.974;12.082;2023-03-08T18:42:46;9.00;;;2.90;;
62037;SDS011;47991;42.974;12.082;2023-03-08T18:45:24;13.10;;;3.20;;
62037;SDS011;47991;42.974;12.082;2023-03-08T18:47:52;13.10;;;3.40;;
62037;SDS011;47991;42.974;12.082;2023-03-08T18:50:22;7.90;;;2.60;;
62037;SDS011;47991;42.974;12.082;2023-03-08T18:52:57;8.30;;;2.80;;
62037;SDS011;47991;42.974;12.082;2023-03-08T18:55:29;9.50;;;2.70;;
62037;SDS011;47991;42.974;12.082;2023-03-08T18:58:02;6.70;;;2.60;;
62037;SDS011;47991;42.974;12.082;2023-03-08T19:00:34;8.60;;;2.90;;
62037;SDS011;47991;42.974;12.082;2023-03-08T19:03:04;11.40;;;3.50;;
62037;SDS011;47991;42.974;12.082;2023-03-08T19:05:33;10.20;;;3.30;;
62037;SDS011;47991;42.974;12.082;2023-03-08T19:08:01;8.20;;;2.80;;
62037;SDS011;47991;42.974;12.082;2023-03-08T19:10:28;11.50;;;3.10;;
62037;SDS011;47991;42.974;12.082;2023-03-08T19:12:57;12.00;;;3.60;;
62037;SDS011;47991;42.974;12.082;2023-03-08T19:15:25;9.50;;;3.20;;
62037;SDS011;47991;42.974;12.082;2023-03-08T19:17:53;10.60;;;3.00;;
62037;SDS011;47991;42.974;12.082;2023-03-08T19:20:27;6.80;;;2.40;;
62037;SDS011;47991;42.974;12.082;2023-03-08T19:22:55;9.30;;;2.90;;
62037;SDS011;47991;42.974;12.082;2023-03-08T19:25:25;10.20;;;3.10;;
62037;SDS011;47991;42.974;12.082;2023-03-08T19:27:53;14.00;;;3.20;;
62037;SDS011;47991;42.974;12.082;2023-03-08T19:30:23;6.80;;;2.60;;
62037;SDS011;47991;42.974;12.082;2023-03-08T19:32:55;7.30;;;2.60;;
62037;SDS011;47991;42.974;12.082;2023-03-08T19:35:22;12.50;;;3.00;;
62037;SDS011;47991;42.974;12.082;2023-03-08T19:37:51;9.70;;;3.00;;
62037;SDS011;47991;42.974;12.082;2023-03-08T19:40:18;9.60;;;3.00;;
62037;SDS011;47991;42.974;12.082;2023-03-08T19:42:45;7.20;;;3.00;;
62037;SDS011;47991;42.974;12.082;2023-03-08T19:45:12;9.70;;;3.10;;
62037;SDS011;47991;42.974;12.082;2023-03-08T19:47:53;8.10;;;3.10;;
62037;SDS011;47991;42.974;12.082;2023-03-08T19:50:22;10.90;;;4.00;;
62037;SDS011;47991;42.974;12.082;2023-03-08T19:52:51;11.70;;;3.40;;
62037;SDS011;47991;42.974;12.082;2023-03-08T19:55:21;14.50;;;3.80;;
62037;SDS011;47991;42.974;12.082;2023-03-08T19:57:52;11.40;;;4.10;;
62037;SDS011;47991;42.974;12.082;2023-03-08T20:00:23;10.30;;;3.60;;
62037;SDS011;47991;42.974;12.082;2023-03-08T20:02:59;10.50;;;4.30;;
62037;SDS011;47991;42.974;12.082;2023-03-08T20:05:30;14.00;;;5.70;;
62037;SDS011;47991;42.974;12.082;2023-03-08T20:07:57;13.00;;;4.00;;
62037;SDS011;47991;42.974;12.082;2023-03-08T20:10:32;10.90;;;4.10;;
62037;SDS011;47991;42.974;12.082;2023-03-08T20:13:38;12.80;;;3.80;;
62037;SDS011;47991;42.974;12.082;2023-03-08T20:16:18;13.00;;;4.30;;
62037;SDS011;47991;42.974;12.082;2023-03-08T20:18:52;12.30;;;4.70;;
62037;SDS011;47991;42.974;12.082;2023-03-08T20:21:23;13.60;;;4.60;;
62037;SDS011;47991;42.974;12.082;2023-03-08T20:23:52;13.90;;;3.90;;
62037;SDS011;47991;42.974;12.082;2023-03-08T20:26:26;12.10;;;4.20;;
62037;SDS011;47991;42.974;12.082;2023-03-08T20:29:03;10.60;;;3.50;;
62037;SDS011;47991;42.974;12.082;2023-03-08T20:31:31;9.80;;;3.70;;
62037;SDS011;47991;42.974;12.082;2023-03-08T20:34:13;13.50;;;4.00;;
62037;SDS011;47991;42.974;12.082;2023-03-08T20:36:44;11.20;;;3.80;;
62037;SDS011;47991;42.974;12.082;2023-03-08T20:39:30;10.60;;;4.00;;
62037;SDS011;47991;42.974;12.082;2023-03-08T20:42:06;14.40;;;3.50;;
62037;SDS011;47991;42.974;12.082;2023-03-08T20:44:33;14.50;;;4.00;;
62037;SDS011;47991;42.974;12.082;2023-03-08T20:47:20;12.20;;;4.10;;
62037;SDS011;47991;42.974;12.082;2023-03-08T20:49:49;17.00;;;4.90;;
62037;SDS011;47991;42.974;12.082;2023-03-08T20:52:21;12.60;;;4.10;;
62037;SDS011;47991;42.974;12.082;2023-03-08T20:54:53;11.30;;;4.10;;
62037;SDS011;47991;42.974;12.082;2023-03-08T20:57:24;9.00;;;3.60;;
62037;SDS011;47991;42.974;12.082;2023-03-08T21:00:01;11.50;;;4.30;;
62037;SDS011;47991;42.974;12.082;2023-03-08T21:02:43;10.00;;;3.60;;
62037;SDS011;47991;42.974;12.082;2023-03-08T21:05:27;13.80;;;4.30;;
62037;SDS011;47991;42.974;12.082;2023-03-08T21:08:04;12.00;;;4.50;;
62037;SDS011;47991;42.974;12.082;2023-03-08T21:10:40;12.90;;;4.40;;
62037;SDS011;47991;42.974;12.082;2023-03-08T21:13:16;11.50;;;3.60;;
62037;SDS011;47991;42.974;12.082;2023-03-08T21:16:04;11.40;;;4.20;;
62037;SDS011;47991;42.974;12.082;2023-03-08T21:18:34;10.60;;;2.90;;
62037;SDS011;47991;42.974;12.082;2023-03-08T21:21:03;14.20;;;3.90;;
62037;SDS011;47991;42.974;12.082;2023-03-08T21:23:43;13.70;;;4.20;;
62037;SDS011;47991;42.974;12.082;2023-03-08T21:26:10;10.90;;;3.60;;
62037;SDS011;47991;42.974;12.082;2023-03-08T21:28:56;10.30;;;3.90;;
62037;SDS011;47991;42.974;12.082;2023-03-08T21:31:28;13.10;;;3.80;;
62037;SDS011;47991;42.974;12.082;2023-03-08T21:34:22;10.80;;;3.70;;
62037;SDS011;47991;42.974;12.082;2023-03-08T21:36:54;11.60;;;4.30;;
62037;SDS011;47991;42.974;12.082;2023-03-08T21:39:43;12.60;;;3.10;;
62037;SDS011;47991;42.974;12.082;2023-03-08T21:42:19;15.90;;;4.00;;
62037;SDS011;47991;42.974;12.082;2023-03-08T21:45:42;11.00;;;2.90;;
62037;SDS011;47991;42.974;12.082;2023-03-08T21:48:16;11.40;;;3.30;;
62037;SDS011;47991;42.974;12.082;2023-03-08T21:50:49;11.60;;;3.50;;
62037;SDS011;47991;42.974;12.082;2023-03-08T21:53:19;12.10;;;3.40;;
62037;SDS011;47991;42.974;12.082;2023-03-08T21:55:51;11.60;;;3.30;;
62037;SDS011;47991;42.974;12.082;2023-03-08T21:58:25;10.50;;;3.50;;
62037;SDS011;47991;42.974;12.082;2023-03-08T22:00:51;11.40;;;2.60;;
62037;SDS011;47991;42.974;12.082;2023-03-08T22:03:24;10.80;;;3.40;;
62037;SDS011;47991;42.974;12.082;2023-03-08T22:05:58;15.20;;;3.70;;
62037;SDS011;47991;42.974;12.082;2023-03-08T22:08:26;8.70;;;3.30;;
62037;SDS011;47991;42.974;12.082;2023-03-08T22:10:56;12.00;;;2.90;;
62037;SDS011;47991;42.974;12.082;2023-03-08T22:13:24;13.30;;;3.40;;
62037;SDS011;47991;42.974;12.082;2023-03-08T22:15:56;15.10;;;3.60;;
62037;SDS011;47991;42.974;12.082;2023-03-08T22:18:23;13.10;;;3.10;;
62037;SDS011;47991;42.974;12.082;2023-03-08T22:20:54;12.90;;;2.80;;
62037;SDS011;47991;42.974;12.082;2023-03-08T22:23:25;10.70;;;3.10;;
62037;SDS011;47991;42.974;12.082;2023-03-08T22:25:52;15.00;;;3.60;;
62037;SDS011;47991;42.974;12.082;2023-03-08T22:28:29;10.00;;;2.90;;
62037;SDS011;47991;42.974;12.082;2023-03-08T22:31:00;11.50;;;3.00;;
62037;SDS011;47991;42.974;12.082;2023-03-08T22:33:31;13.70;;;3.00;;
62037;SDS011;47991;42.974;12.082;2023-03-08T22:36:02;11.80;;;2.90;;
62037;SDS011;47991;42.974;12.082;2023-03-08T22:38:35;11.30;;;3.10;;
62037;SDS011;47991;42.974;12.082;2023-03-08T22:41:08;11.40;;;3.20;;
62037;SDS011;47991;42.974;12.082;2023-03-08T22:43:36;10.00;;;2.70;;
62037;SDS011;47991;42.974;12.082;2023-03-08T22:46:04;9.50;;;3.20;;
62037;SDS011;47991;42.974;12.082;2023-03-08T22:48:36;11.40;;;2.60;;
62037;SDS011;47991;42.974;12.082;2023-03-08T22:51:03;9.20;;;2.60;;
62037;SDS011;47991;42.974;12.082;2023-03-08T22:53:34;13.50;;;3.10;;
62037;SDS011;47991;42.974;12.082;2023-03-08T22:56:23;11.50;;;3.30;;
62037;SDS011;47991;42.974;12.082;2023-03-08T23:01:52;9.40;;;3.10;;
62037;SDS011;47991;42.974;12.082;2023-03-08T23:06:50;9.60;;;2.90;;
62037;SDS011;47991;42.974;12.082;2023-03-08T23:09:18;11.00;;;3.00;;
62037;SDS011;47991;42.974;12.082;2023-03-08T23:11:50;14.40;;;3.00;;
62037;SDS011;47991;42.974;12.082;2023-03-08T23:14:20;10.50;;;2.80;;
62037;SDS011;47991;42.974;12.082;2023-03-08T23:16:56;11.20;;;3.70;;
62037;SDS011;47991;42.974;12.082;2023-03-08T23:19:28;10.60;;;3.20;;
62037;SDS011;47991;42.974;12.082;2023-03-08T23:21:58;10.90;;;3.40;;
62037;SDS011;47991;42.974;12.082;2023-03-08T23:24:45;12.20;;;2.80;;
62037;SDS011;47991;42.974;12.082;2023-03-08T23:27:12;11.50;;;2.50;;
62037;SDS011;47991;42.974;12.082;2023-03-08T23:29:41;12.10;;;3.00;;
62037;SDS011;47991;42.974;12.082;2023-03-08T23:34:39;7.90;;;2.30;;
62037;SDS011;47991;42.974;12.082;2023-03-08T23:37:12;10.30;;;3.10;;
62037;SDS011;47991;42.974;12.082;2023-03-08T23:39:42;8.40;;;2.60;;
62037;SDS011;47991;42.974;12.082;2023-03-08T23:42:11;8.70;;;2.10;;
62037;SDS011;47991;42.974;12.082;2023-03-08T23:44:46;8.10;;;2.60;;
62037;SDS011;47991;42.974;12.082;2023-03-08T23:47:17;8.80;;;2.50;;
62037;SDS011;47991;42.974;12.082;2023-03-08T23:49:47;9.70;;;2.80;;
62037;SDS011;47991;42.974;12.082;2023-03-08T23:52:22;8.10;;;2.30;;
62037;SDS011;47991;42.974;12.082;2023-03-08T23:54:52;8.80;;;2.80;;
62037;SDS011;47991;42.974;12.082;2023-03-08T23:57:19;9.10;;;2.20;;
62037;SDS011;47991;42.974;12.082;2023-03-08T23:59:46;7.00;;;2.20;;
